Time;durP1;ratioP1;P1;durP2;ratioP2;P2;SDS_P1;SDS_P2;PMS_P1;PMS_P2;Temp;Humidity;BMP_temperature;BMP_pressure;BME280_temperature;BME280_humidity;BME280_pressure;Samples;Min_cycle;Max_cycle;Signal;HPM_P1;HPM_P2
2022/06/06 00:09:40;;;;;;;6.63;1.20;;;;;;;42.15;11.66;100266.41;5113945;27;20432;-66
2022/06/06 00:12:07;;;;;;;4.68;1.17;;;;;;;42.23;11.67;100261.88;5085678;28;20034;-68
2022/06/06 00:14:34;;;;;;;2.88;1.00;;;;;;;42.60;11.45;100259.34;5088467;28;20050;-67
2022/06/06 00:17:01;;;;;;;5.32;1.20;;;;;;;43.26;10.85;100260.69;5090555;28;20543;-66
2022/06/06 00:19:28;;;;;;;3.28;0.95;;;;;;;42.74;11.26;100267.09;5085861;28;20029;-67
2022/06/06 00:21:54;;;;;;;3.65;1.00;;;;;;;42.94;11.38;100256.97;5088948;28;20032;-67
2022/06/06 00:24:21;;;;;;;3.70;1.13;;;;;;;41.93;11.72;100263.94;5087647;28;20031;-66
2022/06/06 00:26:48;;;;;;;12.82;1.58;;;;;;;42.65;11.40;100261.47;5089484;28;20028;-66
2022/06/06 00:29:18;;;;;;;5.80;1.60;;;;;;;43.13;11.20;100256.16;5081420;28;20430;-67
2022/06/06 00:35:05;;;;;;;2.45;0.90;;;;;;;42.16;11.97;100254.47;5083752;28;20032;-66
2022/06/06 00:37:30;;;;;;;6.00;1.20;;;;;;;42.20;11.79;100257.16;5078824;28;20041;-66
2022/06/06 00:39:58;;;;;;;3.55;1.17;;;;;;;42.09;11.91;100269.19;5092832;28;20414;-65
2022/06/06 00:42:30;;;;;;;3.85;1.10;;;;;;;41.49;12.44;100270.41;5080306;28;20123;-66
2022/06/06 00:45:38;;;;;;;8.90;1.40;;;;;;;42.16;11.74;100265.13;5079599;28;20067;-64
2022/06/06 00:48:27;;;;;;;5.55;1.13;;;;;;;40.49;12.92;100271.06;5052888;28;20040;-68
2022/06/06 00:50:57;;;;;;;8.15;1.60;;;;;;;40.45;12.88;100260.66;5085378;28;20121;-65
2022/06/06 00:53:40;;;;;;;7.20;1.52;;;;;;;41.51;12.20;100267.84;5085827;28;20036;-65
2022/06/06 00:56:30;;;;;;;8.80;1.40;;;;;;;41.08;12.18;100268.50;5084463;28;20056;-68
2022/06/06 00:59:10;;;;;;;10.10;1.48;;;;;;;40.55;12.89;100283.38;5081747;28;20378;-65
2022/06/06 01:01:38;;;;;;;7.40;1.58;;;;;;;40.85;12.76;100268.03;5076401;28;20028;-66
2022/06/06 01:04:06;;;;;;;7.47;1.20;;;;;;;40.93;12.70;100274.94;5075749;28;20431;-68
2022/06/06 01:06:36;;;;;;;8.07;1.27;;;;;;;40.58;12.68;100279.56;5076537;28;20070;-66
2022/06/06 01:09:05;;;;;;;8.20;1.30;;;;;;;40.90;12.88;100272.25;5089434;28;20044;-65
2022/06/06 01:11:46;;;;;;;5.93;1.50;;;;;;;40.14;13.11;100260.13;5084196;28;20394;-67
2022/06/06 01:14:18;;;;;;;6.90;1.40;;;;;;;40.36;12.90;100286.28;5081476;28;20566;-66
2022/06/06 01:16:56;;;;;;;8.02;1.50;;;;;;;40.11;13.37;100278.16;5084047;28;20033;-68
2022/06/06 01:19:41;;;;;;;12.02;1.83;;;;;;;40.52;13.26;100279.44;5082449;28;20032;-66
2022/06/06 01:22:45;;;;;;;9.07;1.42;;;;;;;40.14;13.16;100288.59;5082629;28;20032;-66
2022/06/06 01:25:33;;;;;;;6.72;1.70;;;;;;;39.89;13.29;100295.44;5090759;28;20069;-69
2022/06/06 01:28:33;;;;;;;8.52;1.45;;;;;;;39.56;13.58;100290.44;5075429;28;20502;-68
2022/06/06 01:31:12;;;;;;;6.90;1.42;;;;;;;39.26;13.57;100294.19;5088922;28;20035;-67
2022/06/06 01:34:00;;;;;;;9.40;1.90;;;;;;;39.73;13.49;100295.78;5091095;28;20537;-63
2022/06/06 01:36:29;;;;;;;10.82;1.70;;;;;;;39.57;13.40;100282.69;5096772;28;20032;-64
2022/06/06 01:39:01;;;;;;;9.82;1.83;;;;;;;39.15;13.87;100299.56;5094660;28;20040;-65
2022/06/06 01:41:51;;;;;;;12.93;1.70;;;;;;;39.22;14.00;100296.41;5093490;28;20576;-65
2022/06/06 01:44:34;;;;;;;20.35;2.50;;;;;;;39.10;14.18;100292.44;5088435;28;20040;-67
2022/06/06 01:47:05;;;;;;;17.30;2.72;;;;;;;39.12;13.95;100298.44;5092767;28;20121;-65
2022/06/06 01:49:34;;;;;;;26.33;2.50;;;;;;;39.24;13.92;100297.50;5088484;28;20029;-67
2022/06/06 01:52:07;;;;;;;25.40;2.83;;;;;;;38.78;14.23;100299.44;5091883;28;20485;-68
2022/06/06 01:54:36;;;;;;;11.32;1.63;;;;;;;38.51;14.58;100300.13;5068866;28;20051;-66
2022/06/06 01:57:07;;;;;;;14.43;2.05;;;;;;;38.48;14.36;100297.44;5092225;28;20028;-68
2022/06/06 01:59:34;;;;;;;11.77;2.25;;;;;;;38.22;14.06;100302.50;5071790;28;20498;-66
2022/06/06 02:02:01;;;;;;;16.15;2.00;;;;;;;38.14;14.57;100301.19;5092253;28;20076;-69
2022/06/06 02:04:28;;;;;;;20.70;3.50;;;;;;;38.15;14.61;100303.56;5094554;28;20108;-69
2022/06/06 02:06:55;;;;;;;13.60;2.03;;;;;;;37.90;14.72;100304.53;5087183;28;20025;-70
2022/06/06 02:09:22;;;;;;;13.07;1.92;;;;;;;37.62;14.85;100308.41;5087871;28;20041;-70
2022/06/06 02:11:48;;;;;;;11.07;2.03;;;;;;;37.47;14.96;100313.78;5091919;28;20031;-67
2022/06/06 02:14:15;;;;;;;12.05;2.65;;;;;;;37.32;15.32;100310.66;5088218;28;20035;-65
2022/06/06 02:16:43;;;;;;;10.38;1.60;;;;;;;36.99;15.35;100309.38;5092384;28;20027;-65
2022/06/06 02:19:11;;;;;;;10.30;1.92;;;;;;;36.89;15.63;100308.47;5087698;28;20045;-66
2022/06/06 02:21:38;;;;;;;12.30;2.15;;;;;;;36.75;15.33;100314.59;5083260;28;20397;-66
2022/06/06 02:24:06;;;;;;;13.95;2.25;;;;;;;36.62;15.28;100314.59;5085883;28;20032;-67
2022/06/06 02:26:32;;;;;;;10.23;2.47;;;;;;;36.47;15.53;100307.81;5076561;28;20032;-65
2022/06/06 02:29:00;;;;;;;10.25;2.17;;;;;;;36.36;15.18;100313.81;5049438;28;20478;-65
2022/06/06 02:31:28;;;;;;;15.60;2.38;;;;;;;36.16;15.83;100319.66;5080444;28;20028;-65
2022/06/06 02:33:55;;;;;;;20.02;2.35;;;;;;;36.07;15.54;100322.31;5089543;28;20032;-67
2022/06/06 02:36:22;;;;;;;21.20;2.63;;;;;;;35.96;16.28;100321.88;5091819;28;20073;-67
2022/06/06 02:38:48;;;;;;;16.08;2.55;;;;;;;35.87;16.47;100321.72;5072029;28;20032;-67
2022/06/06 02:41:17;;;;;;;25.92;2.53;;;;;;;35.69;16.77;100314.50;5082308;28;20024;-65
2022/06/06 02:43:44;;;;;;;22.92;2.60;;;;;;;35.64;16.70;100320.72;5052690;28;20126;-64
2022/06/06 02:46:13;;;;;;;21.20;2.97;;;;;;;35.49;16.50;100336.47;5065386;28;20133;-67
2022/06/06 02:48:40;;;;;;;22.15;2.80;;;;;;;35.34;16.93;100324.72;5077756;28;20027;-69
2022/06/06 02:51:06;;;;;;;26.15;2.60;;;;;;;35.28;17.05;100331.38;5082077;28;20028;-65
2022/06/06 02:53:33;;;;;;;30.75;3.03;;;;;;;35.20;16.97;100324.34;5077519;28;20029;-65
2022/06/06 02:56:00;;;;;;;31.35;2.78;;;;;;;35.19;16.88;100334.03;5071202;28;20031;-65
2022/06/06 02:58:27;;;;;;;37.63;3.40;;;;;;;35.01;17.12;100340.94;5085372;28;20039;-66
2022/06/06 03:00:59;;;;;;;56.22;4.85;;;;;;;34.77;17.85;100343.09;5074563;28;20016;-68
2022/06/06 03:03:27;;;;;;;50.72;3.83;;;;;;;34.83;17.36;100347.00;5092818;28;20059;-67
2022/06/06 03:06:05;;;;;;;65.90;6.05;;;;;;;34.50;17.66;100342.53;5092575;28;20097;-67
2022/06/06 03:08:35;;;;;;;61.08;6.15;;;;;;;34.42;18.04;100339.06;5092454;28;20054;-67
2022/06/06 03:11:07;;;;;;;66.35;5.05;;;;;;;34.47;17.94;100346.22;5092979;28;20478;-65
2022/06/06 03:13:53;;;;;;;59.83;4.65;;;;;;;34.45;17.94;100355.13;5093736;28;20073;-67
2022/06/06 03:22:34;;;;;;;62.35;4.20;;;;;;;34.10;17.95;100353.03;5068333;28;20044;-65
2022/06/06 03:25:05;;;;;;;;;;;;;;;34.16;17.25;100345.69;5100520;28;20046;-68
2022/06/06 03:27:48;;;;;;;54.50;4.20;;;;;;;34.16;17.48;100354.94;5105615;28;19939;-68
2022/06/06 03:30:32;;;;;;;80.10;4.72;;;;;;;34.04;17.94;100352.78;5075221;28;20492;-67
2022/06/06 03:33:08;;;;;;;55.53;3.75;;;;;;;34.06;17.47;100363.63;5091417;28;20070;-67
2022/06/06 03:36:07;;;;;;;62.80;4.65;;;;;;;33.89;17.57;100359.94;5091183;28;20051;-66
2022/06/06 03:39:12;;;;;;;63.03;4.38;;;;;;;33.72;18.05;100364.66;5091024;28;20085;-67
2022/06/06 03:41:44;;;;;;;64.75;4.63;;;;;;;33.59;18.35;100355.25;5073604;28;20055;-66
2022/06/06 03:44:46;;;;;;;73.03;5.53;;;;;;;33.58;18.20;100359.31;5092386;28;20032;-66
2022/06/06 03:47:40;;;;;;;51.75;3.97;;;;;;;33.40;18.44;100370.09;5041448;28;20070;-67
2022/06/06 03:50:33;;;;;;;56.53;5.00;;;;;;;33.28;18.57;100372.28;5093595;28;20044;-68
2022/06/06 03:53:31;;;;;;;46.08;3.50;;;;;;;33.18;18.61;100367.59;5093576;28;20033;-67
2022/06/06 03:56:25;;;;;;;71.78;4.00;;;;;;;33.19;18.32;100366.38;5047541;28;20059;-67
2022/06/06 03:58:54;;;;;;;26.83;2.83;;;;;;;33.04;18.31;100365.03;5093096;28;20032;-68
2022/06/06 04:01:22;;;;;;;38.65;3.78;;;;;;;33.02;18.89;100373.09;5075199;28;20110;-68
2022/06/06 04:03:51;;;;;;;21.80;2.67;;;;;;;33.00;18.51;100373.53;5093700;28;20040;-66
2022/06/06 04:06:18;;;;;;;21.30;3.20;;;;;;;33.14;18.32;100371.72;5093369;28;20099;-68
2022/06/06 04:08:46;;;;;;;17.27;2.38;;;;;;;33.14;17.89;100386.59;5093009;28;20446;-67
2022/06/06 04:11:22;;;;;;;8.32;1.60;;;;;;;33.31;17.52;100379.84;5058464;28;20044;-68
2022/06/06 04:14:03;;;;;;;16.77;2.50;;;;;;;33.16;17.76;100392.59;5093448;28;20032;-66
2022/06/06 04:16:39;;;;;;;10.95;2.38;;;;;;;32.95;17.78;100395.75;5093400;28;20043;-67
2022/06/06 04:19:28;;;;;;;14.23;2.45;;;;;;;32.87;18.41;100399.91;5093055;28;20036;-66
2022/06/06 04:22:13;;;;;;;14.23;2.10;;;;;;;32.75;17.89;100404.06;5075524;28;20036;-67
2022/06/06 04:25:16;;;;;;;21.10;2.95;;;;;;;32.73;17.94;100415.75;5093175;28;20553;-68
2022/06/06 04:28:18;;;;;;;11.23;2.40;;;;;;;32.63;18.00;100413.88;5075023;28;20508;-67
2022/06/06 04:30:53;;;;;;;11.38;2.03;;;;;;;32.53;18.13;100423.25;5092567;28;20500;-68
2022/06/06 04:33:25;;;;;;;21.98;2.38;;;;;;;32.62;18.31;100426.34;5093281;28;20553;-67
2022/06/06 04:36:19;;;;;;;91.57;6.25;;;;;;;32.14;19.56;100434.97;5093137;28;20039;-67
2022/06/06 04:38:52;;;;;;;69.32;5.03;;;;;;;31.97;19.72;100433.94;5092904;28;20119;-68
2022/06/06 04:41:32;;;;;;;52.53;4.80;;;;;;;31.72;20.05;100433.34;5092974;28;20040;-66
2022/06/06 04:44:12;;;;;;;63.55;4.53;;;;;;;31.47;19.98;100439.22;5075528;28;20035;-66
2022/06/06 04:46:54;;;;;;;37.70;3.70;;;;;;;31.29;20.26;100446.97;5096711;28;20089;-67
2022/06/06 04:49:22;;;;;;;39.00;3.85;;;;;;;31.36;20.25;100449.72;5096861;28;20131;-67
2022/06/06 04:51:50;;;;;;;36.20;3.83;;;;;;;31.47;20.04;100451.25;5096613;28;20020;-66
2022/06/06 04:54:22;;;;;;;47.10;4.07;;;;;;;31.37;19.95;100454.13;5078706;28;20032;-66
2022/06/06 04:56:51;;;;;;;34.55;4.25;;;;;;;30.95;21.02;100459.59;5096496;28;20032;-69
2022/06/06 04:59:20;;;;;;;27.23;3.67;;;;;;;30.63;21.17;100456.97;5096442;28;20028;-67
2022/06/06 05:01:48;;;;;;;42.85;4.25;;;;;;;30.48;21.18;100457.41;5030714;28;20059;-68
2022/06/06 05:04:15;;;;;;;24.52;3.25;;;;;;;30.72;20.36;100479.00;5058542;28;20029;-67
2022/06/06 05:06:57;;;;;;;23.02;3.17;;;;;;;30.48;21.04;100471.44;5057930;28;20495;-69
2022/06/06 05:09:57;;;;;;;26.55;3.10;;;;;;;30.19;22.20;100479.94;5075880;28;20098;-67
2022/06/06 05:12:38;;;;;;;32.08;4.50;;;;;;;30.13;22.20;100478.75;5061922;28;20094;-67
2022/06/06 05:15:05;;;;;;;29.05;5.07;;;;;;;30.02;22.32;100483.56;5076149;28;20378;-67
2022/06/06 05:17:39;;;;;;;32.00;5.35;;;;;;;29.97;22.62;100478.34;5075629;28;20029;-67
2022/06/06 05:20:37;;;;;;;22.73;4.68;;;;;;;29.84;22.72;100485.59;5075829;28;20044;-67
2022/06/06 05:23:25;;;;;;;25.05;4.93;;;;;;;29.85;22.60;100481.56;5075966;28;20044;-66
2022/06/06 05:26:45;;;;;;;41.35;6.80;;;;;;;29.85;22.43;100487.19;5075776;28;20044;-69
2022/06/06 05:29:23;;;;;;;15.55;4.00;;;;;;;29.65;22.08;100490.41;4994420;28;20034;-68
2022/06/06 05:31:53;;;;;;;25.58;4.28;;;;;;;29.77;22.71;100483.56;5064495;28;20040;-67
2022/06/06 05:34:37;;;;;;;23.88;4.93;;;;;;;29.78;22.21;100482.38;5078030;28;20036;-68
2022/06/06 05:37:14;;;;;;;24.58;4.20;;;;;;;29.78;21.83;100494.38;5095600;28;20032;-68
2022/06/06 05:39:56;;;;;;;18.92;2.83;;;;;;;29.91;21.71;100482.75;5096008;28;20043;-67
2022/06/06 05:42:41;;;;;;;13.27;3.03;;;;;;;30.40;20.63;100481.88;5095689;28;20043;-67
2022/06/06 05:45:16;;;;;;;23.02;3.80;;;;;;;30.74;20.95;100481.38;5077732;28;20061;-68
2022/06/06 05:48:24;;;;;;;16.23;2.78;;;;;;;30.77;20.19;100486.97;5077700;28;20039;-67
2022/06/06 05:51:12;;;;;;;19.15;3.20;;;;;;;30.98;20.01;100483.25;5095368;28;20034;-68
2022/06/06 05:54:11;;;;;;;20.77;3.00;;;;;;;30.81;20.59;100482.13;5095614;28;20032;-66
2022/06/06 05:56:56;;;;;;;15.10;3.05;;;;;;;30.80;20.37;100472.13;5061377;28;20040;-67
2022/06/06 05:59:38;;;;;;;;;;;;;;;30.63;21.89;100476.59;5095611;28;20119;-65
2022/06/06 06:02:50;;;;;;;25.08;2.85;;;;;;;30.34;21.63;100466.66;5095347;28;20289;-65
2022/06/06 06:05:41;;;;;;;13.07;2.83;;;;;;;30.02;22.44;100477.94;5076566;28;20040;-66
2022/06/06 06:08:20;;;;;;;11.20;2.67;;;;;;;29.62;23.02;100479.97;5074469;28;20028;-65
2022/06/06 06:11:04;;;;;;;16.83;3.08;;;;;;;29.38;22.23;100475.94;5091492;28;20089;-66
2022/06/06 06:13:55;;;;;;;16.88;3.17;;;;;;;29.39;22.60;100476.75;5067750;28;20028;-68
2022/06/06 06:16:40;;;;;;;12.45;2.92;;;;;;;30.26;21.39;100477.13;5091061;28;20032;-64
2022/06/06 06:19:09;;;;;;;13.02;2.60;;;;;;;30.01;22.10;100476.34;5086926;28;20063;-66
2022/06/06 06:21:57;;;;;;;13.60;2.70;;;;;;;29.65;22.63;100478.38;5067203;28;20073;-65
2022/06/06 06:24:31;;;;;;;11.73;2.50;;;;;;;29.33;23.96;100489.53;5091748;28;20032;-65
2022/06/06 06:27:02;;;;;;;12.48;2.40;;;;;;;29.74;22.86;100487.97;5091713;28;20032;-65
2022/06/06 06:29:28;;;;;;;12.02;2.67;;;;;;;29.34;23.43;100497.53;5094286;28;20032;-64
2022/06/06 06:32:01;;;;;;;21.77;3.35;;;;;;;29.12;23.42;100490.31;5093898;28;20040;-67
2022/06/06 06:34:34;;;;;;;6.40;1.05;;;;;;;30.29;21.09;100487.50;5076239;28;20036;-66
2022/06/06 06:37:12;;;;;;;8.77;1.30;;;;;;;30.10;21.51;100487.16;5091367;28;20031;-65
2022/06/06 06:39:47;;;;;;;10.63;1.40;;;;;;;29.77;22.24;100494.78;5067015;28;20035;-65
2022/06/06 06:42:44;;;;;;;9.10;1.75;;;;;;;29.92;21.41;100501.16;5084987;28;20032;-65
2022/06/06 06:45:28;;;;;;;12.48;2.75;;;;;;;29.46;22.85;100499.19;5084986;28;20036;-65
2022/06/06 06:48:03;;;;;;;14.07;3.03;;;;;;;29.58;22.20;100501.59;5084816;28;20122;-66
2022/06/06 06:50:55;;;;;;;13.55;2.47;;;;;;;29.54;22.88;100499.97;5084723;28;20024;-64
2022/06/06 06:53:35;;;;;;;18.60;2.70;;;;;;;29.29;23.22;100497.13;5066779;28;20389;-66
2022/06/06 06:56:14;;;;;;;12.98;2.50;;;;;;;29.32;22.27;100497.13;5091395;28;20107;-66
2022/06/06 06:58:58;;;;;;;10.20;2.08;;;;;;;30.00;21.72;100483.16;5084587;28;20690;-65
2022/06/06 07:01:31;;;;;;;15.05;2.50;;;;;;;30.38;21.17;100479.50;5088173;28;20039;-64
2022/06/06 07:10:35;;;;;;;15.45;2.22;;;;;;;30.39;21.43;100466.25;5084526;28;20070;-65
2022/06/06 07:13:37;;;;;;;14.65;2.55;;;;;;;29.97;21.59;100470.72;5084450;28;20031;-67
2022/06/06 07:16:12;;;;;;;12.18;2.05;;;;;;;29.95;22.19;100475.13;4991558;28;20405;-65
2022/06/06 07:18:41;;;;;;;17.20;2.05;;;;;;;29.48;23.04;100474.38;5066461;28;20067;-64
2022/06/06 07:21:09;;;;;;;14.73;2.17;;;;;;;29.14;24.92;100460.72;5084175;28;20012;-64
2022/06/06 07:23:41;;;;;;;12.90;2.63;;;;;;;29.16;23.80;100465.91;5082967;28;20043;-66
2022/06/06 07:26:10;;;;;;;10.43;2.15;;;;;;;29.14;23.78;100469.13;5082463;28;20115;-65
2022/06/06 07:28:36;;;;;;;12.48;2.05;;;;;;;29.55;23.41;100474.38;5083336;28;20020;-65
2022/06/06 07:31:15;;;;;;;19.92;2.47;;;;;;;29.29;23.40;100472.75;5084752;28;20024;-63
2022/06/06 07:34:11;;;;;;;16.25;2.63;;;;;;;29.06;23.97;100458.28;5086122;28;20027;-64
2022/06/06 07:36:51;;;;;;;26.95;2.65;;;;;;;28.87;24.21;100445.47;5075565;28;20066;-63
2022/06/06 07:39:38;;;;;;;16.30;2.83;;;;;;;28.93;24.36;100460.69;5093506;28;20496;-64
2022/06/06 07:42:23;;;;;;;23.98;3.47;;;;;;;28.86;24.45;100449.47;5093696;28;20180;-65
2022/06/06 07:45:02;;;;;;;23.80;3.42;;;;;;;28.63;25.04;100458.16;5093449;28;20114;-64
2022/06/06 07:47:41;;;;;;;47.65;4.15;;;;;;;28.21;26.97;100465.13;5093317;28;20046;-66
2022/06/06 07:50:19;;;;;;;38.97;3.65;;;;;;;27.86;27.59;100467.69;5093276;28;20044;-65
2022/06/06 07:52:55;;;;;;;21.77;3.50;;;;;;;27.71;26.85;100469.59;5093428;28;20485;-65
2022/06/06 07:55:26;;;;;;;22.75;3.13;;;;;;;27.76;26.17;100466.41;5093463;28;20044;-66
2022/06/06 07:58:12;;;;;;;17.92;4.18;;;;;;;27.48;26.64;100472.56;5093110;28;20078;-67
2022/06/06 08:00:39;;;;;;;21.85;4.38;;;;;;;27.63;26.57;100462.31;5093278;28;20035;-64
2022/06/06 08:03:18;;;;;;;26.58;4.20;;;;;;;27.38;28.12;100456.50;5093301;28;20055;-65
2022/06/06 08:06:20;;;;;;;14.18;3.25;;;;;;;27.60;26.68;100457.50;5093212;28;20366;-64
2022/06/06 08:09:00;;;;;;;21.80;3.60;;;;;;;27.85;26.06;100450.16;5092983;28;20406;-64
2022/06/06 08:11:37;;;;;;;20.27;4.28;;;;;;;28.35;25.06;100452.44;5093316;28;20040;-66
2022/06/06 08:14:20;;;;;;;24.30;4.75;;;;;;;27.86;26.19;100448.16;5093226;28;20035;-66
2022/06/06 08:16:49;;;;;;;20.00;4.40;;;;;;;27.76;26.85;100449.66;5093220;28;20554;-66
2022/06/06 08:19:25;;;;;;;17.65;3.50;;;;;;;27.74;25.83;100463.22;5075961;28;20038;-66
2022/06/06 08:21:52;;;;;;;19.50;3.80;;;;;;;27.82;25.98;100455.69;5097339;28;20393;-64
2022/06/06 08:24:25;;;;;;;12.98;4.32;;;;;;;27.93;26.11;100460.16;5079044;28;20031;-67
2022/06/06 08:26:53;;;;;;;16.52;4.18;;;;;;;27.78;26.20;100460.44;5097131;28;20123;-66
2022/06/06 08:29:22;;;;;;;24.77;4.85;;;;;;;27.53;27.02;100463.03;5079001;28;20059;-66
2022/06/06 08:31:49;;;;;;;24.70;5.03;;;;;;;27.45;27.04;100458.56;5096702;28;20059;-66
2022/06/06 08:34:15;;;;;;;19.52;4.60;;;;;;;27.33;27.06;100459.66;5097177;28;20020;-65
2022/06/06 08:37:04;;;;;;;23.60;4.68;;;;;;;27.24;27.67;100468.34;5087465;28;20029;-65
2022/06/06 08:39:45;;;;;;;16.55;4.22;;;;;;;27.03;28.83;100479.28;5076590;28;20033;-66
2022/06/06 08:42:34;;;;;;;21.70;6.32;;;;;;;27.02;27.33;100472.91;5076525;28;20028;-63
2022/06/06 08:45:06;;;;;;;23.15;7.05;;;;;;;26.92;28.58;100467.16;5076678;28;20040;-65
2022/06/06 08:47:49;;;;;;;19.02;6.00;;;;;;;27.10;27.10;100468.19;5076675;28;20028;-64
2022/06/06 08:50:46;;;;;;;25.60;5.22;;;;;;;27.44;27.07;100470.91;5076458;28;20050;-63
2022/06/06 08:53:50;;;;;;;32.60;8.25;;;;;;;27.26;27.53;100476.31;5076269;28;20040;-64
2022/06/06 08:56:23;;;;;;;31.88;9.95;;;;;;;27.22;27.68;100475.50;5076448;28;20035;-64
2022/06/06 08:58:58;;;;;;;29.10;11.05;;;;;;;27.11;28.69;100480.97;5076215;28;20482;-64
2022/06/06 09:02:01;;;;;;;32.90;11.15;;;;;;;26.86;27.90;100463.13;5082697;28;20458;-64
2022/06/06 09:04:49;;;;;;;41.00;11.25;;;;;;;26.79;28.12;100466.66;5078490;28;20036;-64
2022/06/06 09:08:21;;;;;;;35.38;9.90;;;;;;;26.73;28.21;100466.16;5095905;28;20062;-65
2022/06/06 09:11:15;;;;;;;27.45;9.63;;;;;;;26.57;27.84;100468.38;5034062;28;20041;-64
2022/06/06 09:14:21;;;;;;;27.67;8.23;;;;;;;26.31;28.45;100471.19;5096268;28;20398;-63
2022/06/06 09:17:06;;;;;;;26.63;8.00;;;;;;;26.25;28.97;100464.34;5096307;28;20036;-63
2022/06/06 09:19:39;;;;;;;23.08;7.70;;;;;;;26.10;29.15;100474.47;5096432;28;20043;-64
2022/06/06 09:22:26;;;;;;;25.02;7.30;;;;;;;26.03;29.92;100471.56;5095975;28;20063;-63
2022/06/06 09:24:59;;;;;;;19.38;6.22;;;;;;;26.01;30.65;100471.94;5094648;28;20119;-64
2022/06/06 09:28:18;;;;;;;26.08;6.10;;;;;;;25.93;30.74;100470.25;5095440;28;20112;-65
2022/06/06 09:31:11;;;;;;;22.92;5.85;;;;;;;25.97;31.97;100473.88;5094431;28;20182;-65
2022/06/06 09:34:15;;;;;;;16.27;4.88;;;;;;;26.05;32.00;100474.81;5075590;28;20032;-64
2022/06/06 09:36:41;;;;;;;18.75;4.85;;;;;;;26.17;31.91;100478.16;5074845;28;20040;-64
2022/06/06 09:39:24;;;;;;;21.52;4.90;;;;;;;26.03;32.58;100466.84;5073566;28;20081;-64
2022/06/06 09:42:28;;;;;;;23.02;5.15;;;;;;;25.83;33.41;100476.44;5073566;28;20041;-64
2022/06/06 09:45:09;;;;;;;31.55;7.78;;;;;;;25.75;34.20;100477.53;5073543;28;20032;-65
2022/06/06 09:48:10;;;;;;;29.83;8.73;;;;;;;25.60;35.10;100476.44;5073428;28;20127;-66
2022/06/06 09:51:11;;;;;;;28.67;9.10;;;;;;;25.76;35.23;100474.38;5073553;28;20032;-65
2022/06/06 10:00:31;;;;;;;31.45;6.35;;;;;;;25.41;37.50;100482.91;5075449;28;20036;-64
2022/06/06 10:03:03;;;;;;;24.55;6.05;;;;;;;25.27;38.42;100488.19;5094286;28;20036;-63
2022/06/06 10:05:58;;;;;;;23.83;6.45;;;;;;;25.16;38.98;100479.69;5095676;28;20115;-64
2022/06/06 10:08:31;;;;;;;26.67;6.95;;;;;;;25.10;39.73;100488.66;5095070;28;20410;-64
2022/06/06 10:11:16;;;;;;;21.98;6.22;;;;;;;25.11;40.50;100487.50;5095197;28;20486;-63
2022/06/06 10:14:14;;;;;;;15.82;5.30;;;;;;;25.12;41.75;100489.09;5095129;28;20044;-65
2022/06/06 10:17:18;;;;;;;20.33;5.18;;;;;;;25.05;41.62;100484.22;5095336;28;20403;-65
2022/06/06 10:20:04;;;;;;;28.08;5.60;;;;;;;25.01;41.95;100488.91;5095588;28;20039;-65
2022/06/06 10:23:07;;;;;;;25.33;5.65;;;;;;;24.77;41.51;100476.09;5095072;28;20482;-65
2022/06/06 10:25:40;;;;;;;11.10;4.65;;;;;;;24.74;42.99;100487.94;5094955;28;20485;-64
2022/06/06 10:28:06;;;;;;;17.52;4.32;;;;;;;24.88;43.14;100490.22;5094933;28;20028;-64
2022/06/06 10:31:10;;;;;;;17.17;4.68;;;;;;;24.72;43.66;100481.94;5094749;28;20043;-65
2022/06/06 10:34:10;;;;;;;19.67;4.47;;;;;;;24.69;43.75;100485.47;5074402;28;20089;-66
2022/06/06 10:36:57;;;;;;;19.20;5.00;;;;;;;24.63;43.94;100500.84;5074535;28;20482;-65
2022/06/06 10:39:49;;;;;;;16.92;4.38;;;;;;;24.50;44.55;100496.56;5074405;28;20051;-65
2022/06/06 10:42:25;;;;;;;15.65;4.50;;;;;;;24.34;45.26;100500.22;5073555;28;20029;-66
2022/06/06 10:45:13;;;;;;;13.50;4.50;;;;;;;24.23;46.00;100503.88;5074195;28;20028;-66
2022/06/06 10:48:01;;;;;;;12.68;4.38;;;;;;;24.20;46.17;100499.84;5074161;28;20576;-65
2022/06/06 10:50:34;;;;;;;21.27;5.10;;;;;;;24.16;45.93;100498.97;5074247;28;20041;-65
2022/06/06 10:53:33;;;;;;;23.63;5.22;;;;;;;24.21;46.60;100493.13;5073974;28;20109;-64
2022/06/06 10:56:16;;;;;;;19.92;5.30;;;;;;;24.14;46.79;100492.97;5070289;28;20146;-64
2022/06/06 10:59:10;;;;;;;24.33;5.35;;;;;;;24.16;45.92;100492.63;5091307;28;20036;-65
2022/06/06 11:02:13;;;;;;;21.55;5.35;;;;;;;24.24;46.90;100506.31;5067935;28;20043;-63
2022/06/06 11:05:07;;;;;;;23.90;5.80;;;;;;;24.15;47.41;100508.47;5074087;28;20135;-63
2022/06/06 11:08:01;;;;;;;21.35;5.97;;;;;;;24.16;46.98;100501.75;5073462;28;20052;-64
2022/06/06 11:10:34;;;;;;;22.42;5.22;;;;;;;24.13;47.33;100507.22;5055917;28;20521;-64
2022/06/06 11:13:19;;;;;;;23.40;5.13;;;;;;;24.35;47.09;100512.13;5073742;28;20158;-64
2022/06/06 11:16:04;;;;;;;;;;;;;;;24.51;46.82;100506.53;5074235;28;20059;-63
2022/06/06 11:18:49;;;;;;;22.92;5.32;;;;;;;24.19;47.70;100508.56;5073653;28;20354;-63
2022/06/06 11:21:26;;;;;;;;;;;;;;;23.97;48.50;100508.06;5074242;28;20044;-63
2022/06/06 11:24:21;;;;;;;30.23;5.53;;;;;;;23.87;49.19;100518.88;5073872;28;20003;-65
2022/06/06 11:27:03;;;;;;;21.02;5.53;;;;;;;23.83;48.97;100515.22;5073625;28;20115;-64
2022/06/06 11:30:21;;;;;;;17.33;5.45;;;;;;;23.78;49.62;100517.13;5073596;28;20037;-63
2022/06/06 11:33:30;;;;;;;21.73;4.80;;;;;;;23.81;49.87;100510.84;5091244;28;20043;-64
2022/06/06 11:35:59;;;;;;;22.25;5.20;;;;;;;24.05;49.57;100520.13;5055876;28;20048;-63
2022/06/06 11:39:13;;;;;;;15.07;5.22;;;;;;;23.90;50.12;100527.31;5075318;28;20405;-64
2022/06/06 11:41:58;;;;;;;15.23;5.78;;;;;;;23.79;50.91;100532.59;5093505;28;20032;-64
2022/06/06 11:45:02;;;;;;;13.18;4.05;;;;;;;23.69;51.15;100530.34;5093587;28;20032;-64
2022/06/06 11:47:51;;;;;;;11.13;4.35;;;;;;;23.66;50.83;100531.06;5075206;28;20047;-63
2022/06/06 11:50:27;;;;;;;13.65;4.38;;;;;;;23.77;51.64;100529.38;5093361;28;20067;-64
2022/06/06 11:53:26;;;;;;;26.10;9.50;;;;;;;24.03;51.38;100523.25;5093163;28;20427;-63
2022/06/06 11:56:09;;;;;;;25.35;6.95;;;;;;;24.36;50.71;100520.09;5093404;28;20029;-64
2022/06/06 11:58:39;;;;;;;18.90;5.95;;;;;;;24.43;50.93;100518.66;5093044;28;20079;-64
2022/06/06 12:01:23;;;;;;;20.45;5.93;;;;;;;24.24;51.43;100517.44;5090175;28;20564;-62
2022/06/06 12:04:10;;;;;;;19.00;5.65;;;;;;;23.94;52.20;100519.09;5093360;28;20032;-63
2022/06/06 12:07:04;;;;;;;18.48;5.82;;;;;;;23.80;52.51;100520.34;5093440;28;20528;-63
2022/06/06 12:09:36;;;;;;;22.15;8.38;;;;;;;23.69;51.82;100518.44;5093083;28;20052;-62
2022/06/06 12:12:24;;;;;;;16.70;8.88;;;;;;;23.69;52.48;100519.25;5093088;28;20043;-62
2022/06/06 12:15:19;;;;;;;24.60;9.82;;;;;;;23.52;53.36;100531.50;5093243;28;20036;-63
2022/06/06 12:18:12;;;;;;;19.47;8.60;;;;;;;23.46;52.92;100535.69;5093167;28;20043;-63
2022/06/06 12:20:54;;;;;;;29.80;8.75;;;;;;;23.48;52.72;100546.44;5093210;28;20036;-66
2022/06/06 12:23:28;;;;;;;28.38;8.02;;;;;;;23.47;52.25;100539.25;5093137;28;20041;-65
2022/06/06 12:25:57;;;;;;;29.63;7.10;;;;;;;23.44;52.73;100545.53;5093203;28;20032;-64
2022/06/06 12:28:52;;;;;;;26.83;8.80;;;;;;;23.38;52.08;100549.75;5075054;28;20081;-64
2022/06/06 12:31:53;;;;;;;20.08;7.97;;;;;;;23.42;52.12;100551.44;5092798;28;20028;-63
2022/06/06 12:34:40;;;;;;;25.73;10.27;;;;;;;23.43;51.98;100541.16;5092840;28;20088;-63
2022/06/06 12:37:28;;;;;;;27.95;9.38;;;;;;;23.48;52.06;100551.97;5092889;28;20040;-64
2022/06/06 12:40:09;;;;;;;27.95;7.15;;;;;;;23.58;52.35;100550.69;5092926;28;20505;-65
2022/06/06 12:43:03;;;;;;;17.75;5.47;;;;;;;23.47;52.71;100561.47;5092759;28;20082;-65
2022/06/06 12:45:46;;;;;;;16.40;5.50;;;;;;;23.53;53.02;100560.06;5062707;28;20066;-65
2022/06/06 12:48:38;;;;;;;18.27;5.95;;;;;;;23.54;53.22;100561.66;5092930;28;20036;-63
2022/06/06 12:51:14;;;;;;;17.90;6.43;;;;;;;23.62;53.01;100563.47;5092776;28;20105;-61
2022/06/06 12:53:53;;;;;;;19.95;6.70;;;;;;;23.71;53.25;100560.56;5084124;28;20101;-63